sensor_id;sensor_type;location;lat;lon;timestamp;temperature;humidity
8539;DHT22;4307;53.868;11.680;2023-04-03T00:01:59;0.40;99.90
8539;DHT22;4307;53.868;11.680;2023-04-03T00:04:25;0.40;99.90
8539;DHT22;4307;53.868;11.680;2023-04-03T00:06:53;0.40;99.90
8539;DHT22;4307;53.868;11.680;2023-04-03T00:09:20;0.40;99.90
8539;DHT22;4307;53.868;11.680;2023-04-03T00:11:47;0.30;99.90
8539;DHT22;4307;53.868;11.680;2023-04-03T00:14:13;0.30;99.90
8539;DHT22;4307;53.868;11.680;2023-04-03T00:16:40;0.30;99.90
8539;DHT22;4307;53.868;11.680;2023-04-03T00:19:07;0.20;99.90
8539;DHT22;4307;53.868;11.680;2023-04-03T00:21:34;0.20;99.90
8539;DHT22;4307;53.868;11.680;2023-04-03T00:24:02;0.10;99.90
8539;DHT22;4307;53.868;11.680;2023-04-03T00:26:29;0.10;99.90
8539;DHT22;4307;53.868;11.680;2023-04-03T00:28:55;0.10;99.90
8539;DHT22;4307;53.868;11.680;2023-04-03T00:31:22;0.10;99.90
8539;DHT22;4307;53.868;11.680;2023-04-03T00:33:49;0.00;99.90
8539;DHT22;4307;53.868;11.680;2023-04-03T00:36:15;0.00;99.90
8539;DHT22;4307;53.868;11.680;2023-04-03T00:38:42;0.00;99.90
8539;DHT22;4307;53.868;11.680;2023-04-03T00:41:10;0.00;99.90
8539;DHT22;4307;53.868;11.680;2023-04-03T00:43:37;-0.10;99.90
8539;DHT22;4307;53.868;11.680;2023-04-03T00:46:04;-0.10;99.90
8539;DHT22;4307;53.868;11.680;2023-04-03T00:48:32;-0.10;99.90
8539;DHT22;4307;53.868;11.680;2023-04-03T00:51:00;-0.20;99.90
8539;DHT22;4307;53.868;11.680;2023-04-03T00:53:31;-0.30;99.90
8539;DHT22;4307;53.868;11.680;2023-04-03T00:56:00;-0.30;99.90
8539;DHT22;4307;53.868;11.680;2023-04-03T00:58:32;-0.30;99.90
8539;DHT22;4307;53.868;11.680;2023-04-03T01:01:03;-0.40;99.90
8539;DHT22;4307;53.868;11.680;2023-04-03T01:03:32;-0.40;99.90
8539;DHT22;4307;53.868;11.680;2023-04-03T01:05:58;-0.40;99.90
8539;DHT22;4307;53.868;11.680;2023-04-03T01:08:25;-0.40;99.90
8539;DHT22;4307;53.868;11.680;2023-04-03T01:10:52;-0.40;99.90
8539;DHT22;4307;53.868;11.680;2023-04-03T01:13:22;-0.50;99.90
8539;DHT22;4307;53.868;11.680;2023-04-03T01:15:50;-0.50;99.90
8539;DHT22;4307;53.868;11.680;2023-04-03T01:18:16;-0.50;99.90
8539;DHT22;4307;53.868;11.680;2023-04-03T01:21:09;-0.50;99.90
8539;DHT22;4307;53.868;11.680;2023-04-03T01:23:58;-0.60;99.90
8539;DHT22;4307;53.868;11.680;2023-04-03T01:26:27;-0.50;99.90
8539;DHT22;4307;53.868;11.680;2023-04-03T01:28:54;-0.60;99.90
8539;DHT22;4307;53.868;11.680;2023-04-03T01:31:26;-0.50;99.90
8539;DHT22;4307;53.868;11.680;2023-04-03T01:33:55;-0.60;99.90
8539;DHT22;4307;53.868;11.680;2023-04-03T01:36:24;-0.60;99.90
8539;DHT22;4307;53.868;11.680;2023-04-03T01:38:51;-0.70;99.90
8539;DHT22;4307;53.868;11.680;2023-04-03T01:41:18;-0.70;99.90
8539;DHT22;4307;53.868;11.680;2023-04-03T01:43:46;-0.80;99.90
8539;DHT22;4307;53.868;11.680;2023-04-03T01:46:13;-0.80;99.90
8539;DHT22;4307;53.868;11.680;2023-04-03T01:48:40;-0.80;99.90
8539;DHT22;4307;53.868;11.680;2023-04-03T01:51:08;-0.80;99.90
8539;DHT22;4307;53.868;11.680;2023-04-03T01:53:35;-0.90;99.90
8539;DHT22;4307;53.868;11.680;2023-04-03T01:56:01;-0.90;99.90
8539;DHT22;4307;53.868;11.680;2023-04-03T01:58:28;-0.90;99.90
8539;DHT22;4307;53.868;11.680;2023-04-03T02:00:55;-0.90;99.90
8539;DHT22;4307;53.868;11.680;2023-04-03T02:03:22;-0.90;99.90
8539;DHT22;4307;53.868;11.680;2023-04-03T02:05:49;-0.90;99.90
8539;DHT22;4307;53.868;11.680;2023-04-03T02:08:17;-0.90;99.90
8539;DHT22;4307;53.868;11.680;2023-04-03T02:10:46;-0.90;99.90
8539;DHT22;4307;53.868;11.680;2023-04-03T02:13:12;-0.90;99.90
8539;DHT22;4307;53.868;11.680;2023-04-03T02:15:39;-0.90;99.90
8539;DHT22;4307;53.868;11.680;2023-04-03T02:18:07;-0.90;99.90
8539;DHT22;4307;53.868;11.680;2023-04-03T02:20:34;-0.90;99.90
8539;DHT22;4307;53.868;11.680;2023-04-03T02:23:01;-0.90;99.90
8539;DHT22;4307;53.868;11.680;2023-04-03T02:25:30;-0.90;99.90
8539;DHT22;4307;53.868;11.680;2023-04-03T02:27:57;-1.00;99.90
8539;DHT22;4307;53.868;11.680;2023-04-03T02:30:24;-1.00;99.90
8539;DHT22;4307;53.868;11.680;2023-04-03T02:32:50;-1.00;99.90
8539;DHT22;4307;53.868;11.680;2023-04-03T02:35:17;-1.00;99.90
8539;DHT22;4307;53.868;11.680;2023-04-03T02:37:44;-1.00;99.90
8539;DHT22;4307;53.868;11.680;2023-04-03T02:40:11;-1.00;99.90
8539;DHT22;4307;53.868;11.680;2023-04-03T02:42:39;-1.00;99.90
8539;DHT22;4307;53.868;11.680;2023-04-03T02:45:07;-1.00;99.90
8539;DHT22;4307;53.868;11.680;2023-04-03T02:47:33;-1.10;99.90
8539;DHT22;4307;53.868;11.680;2023-04-03T02:50:00;-1.10;99.90
8539;DHT22;4307;53.868;11.680;2023-04-03T02:52:27;-1.00;99.90
8539;DHT22;4307;53.868;11.680;2023-04-03T02:54:53;-1.00;99.90
8539;DHT22;4307;53.868;11.680;2023-04-03T02:57:20;-1.10;99.90
8539;DHT22;4307;53.868;11.680;2023-04-03T02:59:48;-1.10;99.90
8539;DHT22;4307;53.868;11.680;2023-04-03T03:02:15;-1.10;99.90
8539;DHT22;4307;53.868;11.680;2023-04-03T03:04:41;-1.10;99.90
8539;DHT22;4307;53.868;11.680;2023-04-03T03:07:08;-1.10;99.90
8539;DHT22;4307;53.868;11.680;2023-04-03T03:09:35;-1.10;99.90
8539;DHT22;4307;53.868;11.680;2023-04-03T03:12:02;-1.10;99.90
8539;DHT22;4307;53.868;11.680;2023-04-03T03:14:29;-1.10;99.90
8539;DHT22;4307;53.868;11.680;2023-04-03T03:16:57;-1.10;99.90
8539;DHT22;4307;53.868;11.680;2023-04-03T03:19:23;-1.10;99.90
8539;DHT22;4307;53.868;11.680;2023-04-03T03:21:50;-1.10;99.90
8539;DHT22;4307;53.868;11.680;2023-04-03T03:24:17;-1.00;99.90
8539;DHT22;4307;53.868;11.680;2023-04-03T03:26:44;-1.00;99.90
8539;DHT22;4307;53.868;11.680;2023-04-03T03:29:10;-1.00;99.90
8539;DHT22;4307;53.868;11.680;2023-04-03T03:31:37;-1.00;99.90
8539;DHT22;4307;53.868;11.680;2023-04-03T03:34:05;-1.00;99.90
8539;DHT22;4307;53.868;11.680;2023-04-03T03:36:31;-1.00;99.90
8539;DHT22;4307;53.868;11.680;2023-04-03T03:38:58;-1.00;99.90
8539;DHT22;4307;53.868;11.680;2023-04-03T03:41:25;-1.00;99.90
8539;DHT22;4307;53.868;11.680;2023-04-03T03:43:52;-0.90;99.90
8539;DHT22;4307;53.868;11.680;2023-04-03T03:46:18;-1.00;99.90
8539;DHT22;4307;53.868;11.680;2023-04-03T03:48:45;-1.00;99.90
8539;DHT22;4307;53.868;11.680;2023-04-03T03:51:13;-0.90;99.90
8539;DHT22;4307;53.868;11.680;2023-04-03T03:53:40;-1.00;99.90
8539;DHT22;4307;53.868;11.680;2023-04-03T03:56:06;-1.00;99.90
8539;DHT22;4307;53.868;11.680;2023-04-03T03:58:33;-1.00;99.90
8539;DHT22;4307;53.868;11.680;2023-04-03T04:01:01;-1.00;99.90
8539;DHT22;4307;53.868;11.680;2023-04-03T04:03:28;-1.00;99.90
8539;DHT22;4307;53.868;11.680;2023-04-03T04:05:55;-1.00;99.90
8539;DHT22;4307;53.868;11.680;2023-04-03T04:08:23;-1.00;99.90
8539;DHT22;4307;53.868;11.680;2023-04-03T04:10:50;-1.10;99.90
8539;DHT22;4307;53.868;11.680;2023-04-03T04:13:16;-1.10;99.90
8539;DHT22;4307;53.868;11.680;2023-04-03T04:15:43;-1.10;99.90
8539;DHT22;4307;53.868;11.680;2023-04-03T04:18:10;-1.10;99.90
8539;DHT22;4307;53.868;11.680;2023-04-03T04:20:37;-1.10;99.90
8539;DHT22;4307;53.868;11.680;2023-04-03T04:23:03;-1.10;99.90
8539;DHT22;4307;53.868;11.680;2023-04-03T04:25:32;-1.10;99.90
8539;DHT22;4307;53.868;11.680;2023-04-03T04:27:59;-1.10;99.90
8539;DHT22;4307;53.868;11.680;2023-04-03T04:30:25;-1.10;99.90
8539;DHT22;4307;53.868;11.680;2023-04-03T04:32:52;-1.10;99.90
8539;DHT22;4307;53.868;11.680;2023-04-03T04:35:19;-1.10;99.90
8539;DHT22;4307;53.868;11.680;2023-04-03T04:37:46;-1.20;99.90
8539;DHT22;4307;53.868;11.680;2023-04-03T04:40:13;-1.10;99.90
8539;DHT22;4307;53.868;11.680;2023-04-03T04:42:41;-1.10;99.90
8539;DHT22;4307;53.868;11.680;2023-04-03T04:45:08;-1.10;99.90
8539;DHT22;4307;53.868;11.680;2023-04-03T04:47:35;-1.10;99.90
8539;DHT22;4307;53.868;11.680;2023-04-03T04:50:02;-1.10;99.90
8539;DHT22;4307;53.868;11.680;2023-04-03T04:52:29;-1.10;99.90
8539;DHT22;4307;53.868;11.680;2023-04-03T04:54:55;-1.10;99.90
8539;DHT22;4307;53.868;11.680;2023-04-03T04:57:22;-1.00;99.90
8539;DHT22;4307;53.868;11.680;2023-04-03T04:59:50;-1.00;99.90
8539;DHT22;4307;53.868;11.680;2023-04-03T05:02:16;-1.00;99.90
8539;DHT22;4307;53.868;11.680;2023-04-03T05:04:43;-1.20;99.90
8539;DHT22;4307;53.868;11.680;2023-04-03T05:07:10;-1.00;99.90
8539;DHT22;4307;53.868;11.680;2023-04-03T05:09:36;-1.00;99.90
8539;DHT22;4307;53.868;11.680;2023-04-03T05:12:04;-1.00;99.90
8539;DHT22;4307;53.868;11.680;2023-04-03T05:14:30;-1.00;99.90
8539;DHT22;4307;53.868;11.680;2023-04-03T05:16:58;-0.90;99.90
8539;DHT22;4307;53.868;11.680;2023-04-03T05:19:25;-0.90;99.90
8539;DHT22;4307;53.868;11.680;2023-04-03T05:21:51;-0.90;99.90
8539;DHT22;4307;53.868;11.680;2023-04-03T05:24:18;-0.80;99.90
8539;DHT22;4307;53.868;11.680;2023-04-03T05:26:45;-0.70;99.90
8539;DHT22;4307;53.868;11.680;2023-04-03T05:29:12;-0.70;99.90
8539;DHT22;4307;53.868;11.680;2023-04-03T05:31:38;-0.70;99.90
8539;DHT22;4307;53.868;11.680;2023-04-03T05:34:06;-0.60;99.90
8539;DHT22;4307;53.868;11.680;2023-04-03T05:36:33;-0.60;99.90
8539;DHT22;4307;53.868;11.680;2023-04-03T05:38:59;-0.50;99.90
8539;DHT22;4307;53.868;11.680;2023-04-03T05:41:26;-0.50;99.90
8539;DHT22;4307;53.868;11.680;2023-04-03T05:43:53;-0.40;99.90
8539;DHT22;4307;53.868;11.680;2023-04-03T05:46:20;-0.30;99.90
8539;DHT22;4307;53.868;11.680;2023-04-03T05:48:47;-0.30;99.90
8539;DHT22;4307;53.868;11.680;2023-04-03T05:51:18;-0.20;99.90
8539;DHT22;4307;53.868;11.680;2023-04-03T05:53:46;-0.10;99.90
8539;DHT22;4307;53.868;11.680;2023-04-03T05:56:14;0.00;99.90
8539;DHT22;4307;53.868;11.680;2023-04-03T05:58:40;0.00;99.90
8539;DHT22;4307;53.868;11.680;2023-04-03T06:01:07;0.10;99.90
8539;DHT22;4307;53.868;11.680;2023-04-03T06:03:34;0.20;99.90
8539;DHT22;4307;53.868;11.680;2023-04-03T06:06:03;0.30;99.90
8539;DHT22;4307;53.868;11.680;2023-04-03T06:08:31;0.40;99.90
8539;DHT22;4307;53.868;11.680;2023-04-03T06:10:59;0.50;99.90
8539;DHT22;4307;53.868;11.680;2023-04-03T06:13:27;0.70;99.90
8539;DHT22;4307;53.868;11.680;2023-04-03T06:15:54;0.90;99.90
8539;DHT22;4307;53.868;11.680;2023-04-03T06:18:21;1.00;99.90
8539;DHT22;4307;53.868;11.680;2023-04-03T06:20:48;1.20;99.90
8539;DHT22;4307;53.868;11.680;2023-04-03T06:23:15;1.50;99.90
8539;DHT22;4307;53.868;11.680;2023-04-03T06:25:43;1.90;99.90
8539;DHT22;4307;53.868;11.680;2023-04-03T06:28:09;2.50;99.90
8539;DHT22;4307;53.868;11.680;2023-04-03T06:30:36;3.00;99.90
8539;DHT22;4307;53.868;11.680;2023-04-03T06:33:03;3.60;99.90
8539;DHT22;4307;53.868;11.680;2023-04-03T06:35:30;4.10;99.90
8539;DHT22;4307;53.868;11.680;2023-04-03T06:37:57;4.60;99.90
8539;DHT22;4307;53.868;11.680;2023-04-03T06:40:25;5.10;99.90
8539;DHT22;4307;53.868;11.680;2023-04-03T06:42:53;5.60;99.90
8539;DHT22;4307;53.868;11.680;2023-04-03T06:45:20;6.10;99.90
8539;DHT22;4307;53.868;11.680;2023-04-03T06:47:47;6.50;99.90
8539;DHT22;4307;53.868;11.680;2023-04-03T06:50:13;6.80;99.90
8539;DHT22;4307;53.868;11.680;2023-04-03T06:52:40;7.10;99.90
8539;DHT22;4307;53.868;11.680;2023-04-03T06:55:08;7.30;99.90
8539;DHT22;4307;53.868;11.680;2023-04-03T06:57:35;7.50;99.90
8539;DHT22;4307;53.868;11.680;2023-04-03T07:00:05;7.80;99.90
8539;DHT22;4307;53.868;11.680;2023-04-03T07:02:32;7.90;99.90
8539;DHT22;4307;53.868;11.680;2023-04-03T07:04:59;8.10;99.90
8539;DHT22;4307;53.868;11.680;2023-04-03T07:07:26;8.10;99.90
8539;DHT22;4307;53.868;11.680;2023-04-03T07:09:53;8.20;99.90
8539;DHT22;4307;53.868;11.680;2023-04-03T07:12:20;8.40;99.90
8539;DHT22;4307;53.868;11.680;2023-04-03T07:14:46;8.50;99.90
8539;DHT22;4307;53.868;11.680;2023-04-03T07:17:14;8.60;99.90
8539;DHT22;4307;53.868;11.680;2023-04-03T07:19:41;8.50;99.90
8539;DHT22;4307;53.868;11.680;2023-04-03T07:22:08;8.60;99.90
8539;DHT22;4307;53.868;11.680;2023-04-03T07:24:36;8.60;99.90
8539;DHT22;4307;53.868;11.680;2023-04-03T07:27:03;8.70;99.90
8539;DHT22;4307;53.868;11.680;2023-04-03T07:29:30;8.70;99.90
8539;DHT22;4307;53.868;11.680;2023-04-03T07:31:58;8.70;99.90
8539;DHT22;4307;53.868;11.680;2023-04-03T07:34:26;8.80;99.90
8539;DHT22;4307;53.868;11.680;2023-04-03T07:36:52;8.90;99.90
8539;DHT22;4307;53.868;11.680;2023-04-03T07:39:20;9.10;99.90
8539;DHT22;4307;53.868;11.680;2023-04-03T07:41:46;9.20;99.90
8539;DHT22;4307;53.868;11.680;2023-04-03T07:44:13;9.30;99.90
8539;DHT22;4307;53.868;11.680;2023-04-03T07:46:40;9.50;99.90
8539;DHT22;4307;53.868;11.680;2023-04-03T07:49:08;9.60;99.90
8539;DHT22;4307;53.868;11.680;2023-04-03T07:51:36;9.80;99.90
8539;DHT22;4307;53.868;11.680;2023-04-03T07:54:03;9.90;99.90
8539;DHT22;4307;53.868;11.680;2023-04-03T07:56:33;9.80;99.90
8539;DHT22;4307;53.868;11.680;2023-04-03T07:59:00;9.80;99.90
8539;DHT22;4307;53.868;11.680;2023-04-03T08:01:26;9.60;99.90
8539;DHT22;4307;53.868;11.680;2023-04-03T08:03:53;9.50;99.90
8539;DHT22;4307;53.868;11.680;2023-04-03T08:06:20;9.50;99.90
8539;DHT22;4307;53.868;11.680;2023-04-03T08:08:48;9.60;99.90
8539;DHT22;4307;53.868;11.680;2023-04-03T08:11:15;9.50;99.80
8539;DHT22;4307;53.868;11.680;2023-04-03T08:13:41;9.50;99.90
8539;DHT22;4307;53.868;11.680;2023-04-03T08:16:10;9.60;99.80
8539;DHT22;4307;53.868;11.680;2023-04-03T08:18:37;9.80;99.90
8539;DHT22;4307;53.868;11.680;2023-04-03T08:21:08;10.20;99.90
8539;DHT22;4307;53.868;11.680;2023-04-03T08:23:35;10.70;99.90
8539;DHT22;4307;53.868;11.680;2023-04-03T08:26:08;10.90;99.10
8539;DHT22;4307;53.868;11.680;2023-04-03T08:28:35;10.90;98.80
8539;DHT22;4307;53.868;11.680;2023-04-03T08:31:03;10.90;98.30
8539;DHT22;4307;53.868;11.680;2023-04-03T08:33:31;10.80;98.00
8539;DHT22;4307;53.868;11.680;2023-04-03T08:35:59;10.80;97.90
8539;DHT22;4307;53.868;11.680;2023-04-03T08:38:26;10.80;97.40
8539;DHT22;4307;53.868;11.680;2023-04-03T08:41:01;10.80;97.30
8539;DHT22;4307;53.868;11.680;2023-04-03T08:43:37;10.90;97.00
8539;DHT22;4307;53.868;11.680;2023-04-03T08:46:11;11.00;96.50
8539;DHT22;4307;53.868;11.680;2023-04-03T08:48:41;11.00;96.30
8539;DHT22;4307;53.868;11.680;2023-04-03T08:51:12;11.10;96.30
8539;DHT22;4307;53.868;11.680;2023-04-03T08:53:42;11.30;96.00
8539;DHT22;4307;53.868;11.680;2023-04-03T08:56:11;11.50;96.40
8539;DHT22;4307;53.868;11.680;2023-04-03T08:58:46;11.70;95.40
8539;DHT22;4307;53.868;11.680;2023-04-03T09:01:18;11.60;94.80
8539;DHT22;4307;53.868;11.680;2023-04-03T09:03:45;11.60;93.60
8539;DHT22;4307;53.868;11.680;2023-04-03T09:06:14;11.50;94.20
8539;DHT22;4307;53.868;11.680;2023-04-03T09:08:47;11.60;94.30
8539;DHT22;4307;53.868;11.680;2023-04-03T09:11:21;11.50;93.80
8539;DHT22;4307;53.868;11.680;2023-04-03T09:13:54;11.50;93.50
8539;DHT22;4307;53.868;11.680;2023-04-03T09:16:30;11.40;93.60
8539;DHT22;4307;53.868;11.680;2023-04-03T09:19:07;11.10;93.40
8539;DHT22;4307;53.868;11.680;2023-04-03T09:21:38;11.00;93.30
8539;DHT22;4307;53.868;11.680;2023-04-03T09:24:09;10.70;93.40
8539;DHT22;4307;53.868;11.680;2023-04-03T09:26:42;10.90;93.60
8539;DHT22;4307;53.868;11.680;2023-04-03T09:29:16;11.10;93.70
8539;DHT22;4307;53.868;11.680;2023-04-03T09:31:44;11.30;93.50
8539;DHT22;4307;53.868;11.680;2023-04-03T09:34:17;11.20;92.90
8539;DHT22;4307;53.868;11.680;2023-04-03T09:36:48;11.20;92.90
8539;DHT22;4307;53.868;11.680;2023-04-03T09:39:17;11.40;93.00
8539;DHT22;4307;53.868;11.680;2023-04-03T09:41:58;11.60;92.70
8539;DHT22;4307;53.868;11.680;2023-04-03T09:44:28;11.80;92.40
8539;DHT22;4307;53.868;11.680;2023-04-03T09:46:55;12.00;92.10
8539;DHT22;4307;53.868;11.680;2023-04-03T09:49:22;12.10;91.60
8539;DHT22;4307;53.868;11.680;2023-04-03T09:51:49;11.90;90.70
8539;DHT22;4307;53.868;11.680;2023-04-03T09:54:33;11.50;90.60
8539;DHT22;4307;53.868;11.680;2023-04-03T09:57:08;11.40;90.70
8539;DHT22;4307;53.868;11.680;2023-04-03T09:59:40;11.20;90.00
8539;DHT22;4307;53.868;11.680;2023-04-03T10:02:22;10.90;90.10
8539;DHT22;4307;53.868;11.680;2023-04-03T10:04:49;11.00;90.10
8539;DHT22;4307;53.868;11.680;2023-04-03T10:07:31;11.10;89.60
8539;DHT22;4307;53.868;11.680;2023-04-03T10:10:00;11.30;89.30
8539;DHT22;4307;53.868;11.680;2023-04-03T10:12:28;11.50;88.90
8539;DHT22;4307;53.868;11.680;2023-04-03T10:14:58;11.80;89.00
8539;DHT22;4307;53.868;11.680;2023-04-03T10:17:35;12.00;87.70
8539;DHT22;4307;53.868;11.680;2023-04-03T10:20:12;12.20;87.00
8539;DHT22;4307;53.868;11.680;2023-04-03T10:22:46;12.40;86.50
8539;DHT22;4307;53.868;11.680;2023-04-03T10:25:20;12.60;85.10
8539;DHT22;4307;53.868;11.680;2023-04-03T10:27:55;12.40;83.90
8539;DHT22;4307;53.868;11.680;2023-04-03T10:30:34;12.00;83.40
8539;DHT22;4307;53.868;11.680;2023-04-03T10:33:18;11.60;82.40
8539;DHT22;4307;53.868;11.680;2023-04-03T10:35:53;11.20;82.10
8539;DHT22;4307;53.868;11.680;2023-04-03T10:38:31;10.80;82.40
8539;DHT22;4307;53.868;11.680;2023-04-03T10:41:04;10.70;81.80
8539;DHT22;4307;53.868;11.680;2023-04-03T10:43:39;10.40;80.60
8539;DHT22;4307;53.868;11.680;2023-04-03T10:46:12;10.10;80.40
8539;DHT22;4307;53.868;11.680;2023-04-03T10:48:53;10.00;80.40
8539;DHT22;4307;53.868;11.680;2023-04-03T10:51:29;9.70;80.10
8539;DHT22;4307;53.868;11.680;2023-04-03T10:54:01;9.50;79.00
8539;DHT22;4307;53.868;11.680;2023-04-03T10:56:37;9.20;78.50
8539;DHT22;4307;53.868;11.680;2023-04-03T10:59:16;9.30;79.50
8539;DHT22;4307;53.868;11.680;2023-04-03T11:01:47;9.50;79.70
8539;DHT22;4307;53.868;11.680;2023-04-03T11:04:16;9.80;80.10
8539;DHT22;4307;53.868;11.680;2023-04-03T11:06:47;10.20;79.40
8539;DHT22;4307;53.868;11.680;2023-04-03T11:09:21;10.50;79.00
8539;DHT22;4307;53.868;11.680;2023-04-03T11:11:48;10.40;78.90
8539;DHT22;4307;53.868;11.680;2023-04-03T11:14:22;10.20;78.90
8539;DHT22;4307;53.868;11.680;2023-04-03T11:17:01;10.00;79.40
8539;DHT22;4307;53.868;11.680;2023-04-03T11:19:34;9.90;79.80
8539;DHT22;4307;53.868;11.680;2023-04-03T11:22:09;10.00;77.80
8539;DHT22;4307;53.868;11.680;2023-04-03T11:24:40;10.10;76.50
8539;DHT22;4307;53.868;11.680;2023-04-03T11:27:15;10.30;76.20
8539;DHT22;4307;53.868;11.680;2023-04-03T11:29:44;10.50;76.60
8539;DHT22;4307;53.868;11.680;2023-04-03T11:32:29;10.80;76.20
8539;DHT22;4307;53.868;11.680;2023-04-03T11:35:02;11.00;75.70
8539;DHT22;4307;53.868;11.680;2023-04-03T11:37:34;11.00;75.60
8539;DHT22;4307;53.868;11.680;2023-04-03T11:40:04;11.30;75.50
8539;DHT22;4307;53.868;11.680;2023-04-03T11:42:36;11.40;74.20
8539;DHT22;4307;53.868;11.680;2023-04-03T11:45:32;11.40;74.10
8539;DHT22;4307;53.868;11.680;2023-04-03T11:48:02;11.50;72.70
8539;DHT22;4307;53.868;11.680;2023-04-03T11:50:44;11.60;73.00
8539;DHT22;4307;53.868;11.680;2023-04-03T11:53:32;11.60;71.50
8539;DHT22;4307;53.868;11.680;2023-04-03T11:56:01;11.80;70.70
8539;DHT22;4307;53.868;11.680;2023-04-03T11:58:30;11.80;70.70
8539;DHT22;4307;53.868;11.680;2023-04-03T12:01:08;11.70;68.60
8539;DHT22;4307;53.868;11.680;2023-04-03T12:04:07;11.50;67.80
8539;DHT22;4307;53.868;11.680;2023-04-03T12:12:40;11.70;67.30
8539;DHT22;4307;53.868;11.680;2023-04-03T12:15:19;12.00;65.70
8539;DHT22;4307;53.868;11.680;2023-04-03T12:17:47;12.10;65.00
8539;DHT22;4307;53.868;11.680;2023-04-03T12:23:31;12.00;62.90
8539;DHT22;4307;53.868;11.680;2023-04-03T12:26:05;12.10;62.80
8539;DHT22;4307;53.868;11.680;2023-04-03T12:28:37;12.10;62.70
8539;DHT22;4307;53.868;11.680;2023-04-03T12:31:05;12.20;63.20
8539;DHT22;4307;53.868;11.680;2023-04-03T12:33:43;12.40;62.70
8539;DHT22;4307;53.868;11.680;2023-04-03T12:36:21;12.40;61.90
8539;DHT22;4307;53.868;11.680;2023-04-03T12:39:01;12.40;61.80
8539;DHT22;4307;53.868;11.680;2023-04-03T12:41:36;12.40;61.90
8539;DHT22;4307;53.868;11.680;2023-04-03T12:44:19;12.50;60.20
8539;DHT22;4307;53.868;11.680;2023-04-03T12:46:51;12.40;58.70
8539;DHT22;4307;53.868;11.680;2023-04-03T12:49:33;12.40;59.20
8539;DHT22;4307;53.868;11.680;2023-04-03T12:52:04;12.70;59.70
8539;DHT22;4307;53.868;11.680;2023-04-03T12:54:36;12.80;59.20
8539;DHT22;4307;53.868;11.680;2023-04-03T12:57:12;12.70;59.70
8539;DHT22;4307;53.868;11.680;2023-04-03T12:59:43;12.90;59.30
8539;DHT22;4307;53.868;11.680;2023-04-03T13:02:20;13.20;59.00
8539;DHT22;4307;53.868;11.680;2023-04-03T13:04:48;13.40;58.70
8539;DHT22;4307;53.868;11.680;2023-04-03T13:07:23;13.60;58.70
8539;DHT22;4307;53.868;11.680;2023-04-03T13:09:59;13.70;58.20
8539;DHT22;4307;53.868;11.680;2023-04-03T13:12:26;13.90;58.00
8539;DHT22;4307;53.868;11.680;2023-04-03T13:14:55;14.10;58.20
8539;DHT22;4307;53.868;11.680;2023-04-03T13:17:22;14.40;58.00
8539;DHT22;4307;53.868;11.680;2023-04-03T13:19:49;14.50;58.30
8539;DHT22;4307;53.868;11.680;2023-04-03T13:22:26;14.60;58.50
8539;DHT22;4307;53.868;11.680;2023-04-03T13:24:54;14.90;58.30
8539;DHT22;4307;53.868;11.680;2023-04-03T13:27:24;15.20;58.00
8539;DHT22;4307;53.868;11.680;2023-04-03T13:29:52;15.30;57.50
8539;DHT22;4307;53.868;11.680;2023-04-03T13:32:22;15.40;57.70
8539;DHT22;4307;53.868;11.680;2023-04-03T13:34:50;15.40;58.10
8539;DHT22;4307;53.868;11.680;2023-04-03T13:37:23;15.40;58.60
8539;DHT22;4307;53.868;11.680;2023-04-03T13:39:58;15.50;58.30
8539;DHT22;4307;53.868;11.680;2023-04-03T13:42:28;15.60;58.80
8539;DHT22;4307;53.868;11.680;2023-04-03T13:45:18;15.90;59.50
8539;DHT22;4307;53.868;11.680;2023-04-03T13:47:46;16.10;59.60
8539;DHT22;4307;53.868;11.680;2023-04-03T13:50:17;16.20;60.10
8539;DHT22;4307;53.868;11.680;2023-04-03T13:52:48;16.30;60.50
8539;DHT22;4307;53.868;11.680;2023-04-03T13:55:20;16.40;60.90
8539;DHT22;4307;53.868;11.680;2023-04-03T13:57:55;16.60;61.20
8539;DHT22;4307;53.868;11.680;2023-04-03T14:00:31;16.70;60.80
8539;DHT22;4307;53.868;11.680;2023-04-03T14:02:58;16.30;60.80
8539;DHT22;4307;53.868;11.680;2023-04-03T14:05:25;15.80;60.70
8539;DHT22;4307;53.868;11.680;2023-04-03T14:07:52;15.10;60.10
8539;DHT22;4307;53.868;11.680;2023-04-03T14:10:20;14.50;59.80
8539;DHT22;4307;53.868;11.680;2023-04-03T14:12:47;14.00;59.90
8539;DHT22;4307;53.868;11.680;2023-04-03T14:15:19;13.40;59.90
8539;DHT22;4307;53.868;11.680;2023-04-03T14:17:47;12.80;59.80
8539;DHT22;4307;53.868;11.680;2023-04-03T14:20:18;12.40;60.50
8539;DHT22;4307;53.868;11.680;2023-04-03T14:22:45;12.00;60.80
8539;DHT22;4307;53.868;11.680;2023-04-03T14:25:12;11.70;60.70
8539;DHT22;4307;53.868;11.680;2023-04-03T14:27:40;11.50;60.50
8539;DHT22;4307;53.868;11.680;2023-04-03T14:30:12;11.20;60.30
8539;DHT22;4307;53.868;11.680;2023-04-03T14:32:42;10.90;60.40
8539;DHT22;4307;53.868;11.680;2023-04-03T14:35:09;10.70;60.90
8539;DHT22;4307;53.868;11.680;2023-04-03T14:37:37;10.50;61.40
8539;DHT22;4307;53.868;11.680;2023-04-03T14:40:07;10.20;61.10
8539;DHT22;4307;53.868;11.680;2023-04-03T14:42:36;10.10;61.30
8539;DHT22;4307;53.868;11.680;2023-04-03T14:45:05;10.00;61.30
8539;DHT22;4307;53.868;11.680;2023-04-03T14:47:33;9.90;62.20
8539;DHT22;4307;53.868;11.680;2023-04-03T14:50:03;9.70;62.10
8539;DHT22;4307;53.868;11.680;2023-04-03T14:52:35;9.60;63.10
8539;DHT22;4307;53.868;11.680;2023-04-03T14:55:04;9.40;62.50
8539;DHT22;4307;53.868;11.680;2023-04-03T14:57:31;9.40;62.90
8539;DHT22;4307;53.868;11.680;2023-04-03T14:59:59;9.30;63.20
8539;DHT22;4307;53.868;11.680;2023-04-03T15:02:29;9.40;63.30
8539;DHT22;4307;53.868;11.680;2023-04-03T15:04:57;9.30;62.80
8539;DHT22;4307;53.868;11.680;2023-04-03T15:07:27;9.10;63.00
8539;DHT22;4307;53.868;11.680;2023-04-03T15:09:55;9.00;63.40
8539;DHT22;4307;53.868;11.680;2023-04-03T15:12:22;9.00;63.50
8539;DHT22;4307;53.868;11.680;2023-04-03T15:14:48;9.00;63.90
8539;DHT22;4307;53.868;11.680;2023-04-03T15:17:17;9.00;64.70
8539;DHT22;4307;53.868;11.680;2023-04-03T15:19:44;8.90;64.00
8539;DHT22;4307;53.868;11.680;2023-04-03T15:22:14;8.80;64.20
8539;DHT22;4307;53.868;11.680;2023-04-03T15:24:42;8.70;64.30
8539;DHT22;4307;53.868;11.680;2023-04-03T15:27:10;8.70;64.50
8539;DHT22;4307;53.868;11.680;2023-04-03T15:29:37;8.50;64.50
8539;DHT22;4307;53.868;11.680;2023-04-03T15:32:04;8.30;64.80
8539;DHT22;4307;53.868;11.680;2023-04-03T15:34:31;8.20;64.90
8539;DHT22;4307;53.868;11.680;2023-04-03T15:36:58;8.20;65.20
8539;DHT22;4307;53.868;11.680;2023-04-03T15:39:24;8.20;65.70
8539;DHT22;4307;53.868;11.680;2023-04-03T15:41:53;8.10;65.90
8539;DHT22;4307;53.868;11.680;2023-04-03T15:44:20;8.00;66.10
8539;DHT22;4307;53.868;11.680;2023-04-03T15:46:47;7.90;66.40
8539;DHT22;4307;53.868;11.680;2023-04-03T15:49:16;7.90;66.90
8539;DHT22;4307;53.868;11.680;2023-04-03T15:51:43;7.80;67.30
8539;DHT22;4307;53.868;11.680;2023-04-03T15:54:10;7.80;67.70
8539;DHT22;4307;53.868;11.680;2023-04-03T15:56:37;7.80;67.90
8539;DHT22;4307;53.868;11.680;2023-04-03T15:59:05;7.70;68.10
8539;DHT22;4307;53.868;11.680;2023-04-03T16:01:31;7.60;68.00
8539;DHT22;4307;53.868;11.680;2023-04-03T16:03:58;7.50;68.20
8539;DHT22;4307;53.868;11.680;2023-04-03T16:06:25;7.50;68.50
8539;DHT22;4307;53.868;11.680;2023-04-03T16:08:54;7.40;68.60
8539;DHT22;4307;53.868;11.680;2023-04-03T16:11:23;7.40;68.70
8539;DHT22;4307;53.868;11.680;2023-04-03T16:13:50;7.20;68.80